sensor_id;sensor_type;location;lat;lon;timestamp;P1;durP1;ratioP1;P2;durP2;ratioP2
1467;SDS011;727;48.892;9.544;2024-02-28T00:02:00;29.73;;;20.45;;
1467;SDS011;727;48.892;9.544;2024-02-28T00:04:27;31.42;;;19.52;;
1467;SDS011;727;48.892;9.544;2024-02-28T00:06:54;32.38;;;22.55;;
1467;SDS011;727;48.892;9.544;2024-02-28T00:09:20;31.75;;;21.45;;
1467;SDS011;727;48.892;9.544;2024-02-28T00:11:47;34.78;;;22.75;;
1467;SDS011;727;48.892;9.544;2024-02-28T00:14:14;31.58;;;23.38;;
1467;SDS011;727;48.892;9.544;2024-02-28T00:16:42;33.20;;;22.08;;
1467;SDS011;727;48.892;9.544;2024-02-28T00:19:09;34.47;;;23.20;;
1467;SDS011;727;48.892;9.544;2024-02-28T00:21:37;32.85;;;21.83;;
1467;SDS011;727;48.892;9.544;2024-02-28T00:24:04;29.25;;;21.60;;
1467;SDS011;727;48.892;9.544;2024-02-28T00:26:31;39.92;;;23.95;;
1467;SDS011;727;48.892;9.544;2024-02-28T00:28:57;35.65;;;23.02;;
1467;SDS011;727;48.892;9.544;2024-02-28T00:31:24;35.42;;;23.20;;
1467;SDS011;727;48.892;9.544;2024-02-28T00:33:52;32.00;;;22.15;;
1467;SDS011;727;48.892;9.544;2024-02-28T00:36:19;27.50;;;20.13;;
1467;SDS011;727;48.892;9.544;2024-02-28T00:38:46;35.05;;;24.35;;
1467;SDS011;727;48.892;9.544;2024-02-28T00:41:12;33.88;;;23.40;;
1467;SDS011;727;48.892;9.544;2024-02-28T00:43:39;33.42;;;21.55;;
1467;SDS011;727;48.892;9.544;2024-02-28T00:46:05;35.53;;;23.80;;
1467;SDS011;727;48.892;9.544;2024-02-28T00:48:36;37.10;;;23.70;;
1467;SDS011;727;48.892;9.544;2024-02-28T00:51:04;32.25;;;21.83;;
1467;SDS011;727;48.892;9.544;2024-02-28T00:53:31;33.15;;;22.80;;
1467;SDS011;727;48.892;9.544;2024-02-28T00:55:57;40.72;;;26.77;;
1467;SDS011;727;48.892;9.544;2024-02-28T00:58:24;37.60;;;23.90;;
1467;SDS011;727;48.892;9.544;2024-02-28T01:00:52;38.00;;;23.48;;
1467;SDS011;727;48.892;9.544;2024-02-28T01:03:19;41.67;;;25.60;;
1467;SDS011;727;48.892;9.544;2024-02-28T01:05:46;37.00;;;23.42;;
1467;SDS011;727;48.892;9.544;2024-02-28T01:08:16;36.03;;;23.33;;
1467;SDS011;727;48.892;9.544;2024-02-28T01:10:43;29.40;;;21.23;;
1467;SDS011;727;48.892;9.544;2024-02-28T01:13:10;43.20;;;25.00;;
1467;SDS011;727;48.892;9.544;2024-02-28T01:15:37;34.90;;;23.30;;
1467;SDS011;727;48.892;9.544;2024-02-28T01:18:06;36.63;;;23.58;;
1467;SDS011;727;48.892;9.544;2024-02-28T01:20:32;35.93;;;23.63;;
1467;SDS011;727;48.892;9.544;2024-02-28T01:22:58;36.22;;;25.17;;
1467;SDS011;727;48.892;9.544;2024-02-28T01:25:26;36.80;;;24.60;;
1467;SDS011;727;48.892;9.544;2024-02-28T01:27:53;33.78;;;23.00;;
1467;SDS011;727;48.892;9.544;2024-02-28T01:30:20;34.28;;;22.45;;
1467;SDS011;727;48.892;9.544;2024-02-28T01:32:47;34.63;;;24.25;;
1467;SDS011;727;48.892;9.544;2024-02-28T01:35:13;34.88;;;23.45;;
1467;SDS011;727;48.892;9.544;2024-02-28T01:37:40;35.55;;;21.80;;
1467;SDS011;727;48.892;9.544;2024-02-28T01:40:07;36.10;;;24.45;;
1467;SDS011;727;48.892;9.544;2024-02-28T01:42:36;30.98;;;21.45;;
1467;SDS011;727;48.892;9.544;2024-02-28T01:45:03;35.92;;;22.85;;
1467;SDS011;727;48.892;9.544;2024-02-28T01:47:30;35.90;;;23.20;;
1467;SDS011;727;48.892;9.544;2024-02-28T01:49:57;37.92;;;24.05;;
1467;SDS011;727;48.892;9.544;2024-02-28T01:52:24;35.08;;;23.25;;
1467;SDS011;727;48.892;9.544;2024-02-28T01:54:51;37.00;;;24.25;;
1467;SDS011;727;48.892;9.544;2024-02-28T01:57:18;35.90;;;23.10;;
1467;SDS011;727;48.892;9.544;2024-02-28T01:59:46;36.92;;;24.67;;
1467;SDS011;727;48.892;9.544;2024-02-28T02:02:13;37.63;;;23.65;;
1467;SDS011;727;48.892;9.544;2024-02-28T02:04:40;36.50;;;24.27;;
1467;SDS011;727;48.892;9.544;2024-02-28T02:07:06;33.33;;;22.40;;
1467;SDS011;727;48.892;9.544;2024-02-28T02:09:34;37.10;;;22.77;;
1467;SDS011;727;48.892;9.544;2024-02-28T02:12:00;34.25;;;23.40;;
1467;SDS011;727;48.892;9.544;2024-02-28T02:14:27;32.90;;;23.85;;
1467;SDS011;727;48.892;9.544;2024-02-28T02:16:55;34.78;;;22.88;;
1467;SDS011;727;48.892;9.544;2024-02-28T02:19:22;34.88;;;23.00;;
1467;SDS011;727;48.892;9.544;2024-02-28T02:21:49;34.28;;;22.33;;
1467;SDS011;727;48.892;9.544;2024-02-28T02:24:19;35.75;;;25.45;;
1467;SDS011;727;48.892;9.544;2024-02-28T02:26:46;34.83;;;23.10;;
1467;SDS011;727;48.892;9.544;2024-02-28T02:29:12;32.20;;;22.40;;
1467;SDS011;727;48.892;9.544;2024-02-28T02:31:39;37.25;;;25.10;;
1467;SDS011;727;48.892;9.544;2024-02-28T02:34:06;35.60;;;22.80;;
1467;SDS011;727;48.892;9.544;2024-02-28T02:36:33;33.15;;;22.40;;
1467;SDS011;727;48.892;9.544;2024-02-28T02:38:59;36.05;;;23.17;;
1467;SDS011;727;48.892;9.544;2024-02-28T02:41:27;35.08;;;22.85;;
1467;SDS011;727;48.892;9.544;2024-02-28T02:43:54;31.55;;;22.20;;
1467;SDS011;727;48.892;9.544;2024-02-28T02:46:21;35.00;;;22.90;;
1467;SDS011;727;48.892;9.544;2024-02-28T02:48:48;32.92;;;23.52;;
1467;SDS011;727;48.892;9.544;2024-02-28T02:51:15;28.90;;;21.27;;
1467;SDS011;727;48.892;9.544;2024-02-28T02:53:43;39.08;;;23.10;;
1467;SDS011;727;48.892;9.544;2024-02-28T02:56:10;32.45;;;21.95;;
1467;SDS011;727;48.892;9.544;2024-02-28T02:58:38;32.90;;;21.58;;
1467;SDS011;727;48.892;9.544;2024-02-28T03:01:04;35.22;;;22.80;;
1467;SDS011;727;48.892;9.544;2024-02-28T03:03:31;30.67;;;21.90;;
1467;SDS011;727;48.892;9.544;2024-02-28T03:05:58;30.60;;;21.58;;
1467;SDS011;727;48.892;9.544;2024-02-28T03:08:24;34.97;;;23.77;;
1467;SDS011;727;48.892;9.544;2024-02-28T03:10:51;30.67;;;21.65;;
1467;SDS011;727;48.892;9.544;2024-02-28T03:13:18;35.13;;;23.27;;
1467;SDS011;727;48.892;9.544;2024-02-28T03:15:46;32.55;;;22.38;;
1467;SDS011;727;48.892;9.544;2024-02-28T03:18:12;34.78;;;22.98;;
1467;SDS011;727;48.892;9.544;2024-02-28T03:20:39;35.05;;;22.50;;
1467;SDS011;727;48.892;9.544;2024-02-28T03:23:05;40.42;;;24.30;;
1467;SDS011;727;48.892;9.544;2024-02-28T03:25:32;35.70;;;22.98;;
1467;SDS011;727;48.892;9.544;2024-02-28T03:27:59;35.65;;;23.63;;
1467;SDS011;727;48.892;9.544;2024-02-28T03:30:27;33.50;;;22.00;;
1467;SDS011;727;48.892;9.544;2024-02-28T03:32:55;33.97;;;23.45;;
1467;SDS011;727;48.892;9.544;2024-02-28T03:35:21;36.47;;;23.30;;
1467;SDS011;727;48.892;9.544;2024-02-28T03:37:48;36.83;;;23.73;;
1467;SDS011;727;48.892;9.544;2024-02-28T03:40:15;42.50;;;23.52;;
1467;SDS011;727;48.892;9.544;2024-02-28T03:42:41;38.28;;;23.00;;
1467;SDS011;727;48.892;9.544;2024-02-28T03:45:08;31.20;;;22.55;;
1467;SDS011;727;48.892;9.544;2024-02-28T03:47:35;35.13;;;23.50;;
1467;SDS011;727;48.892;9.544;2024-02-28T03:50:03;34.38;;;23.90;;
1467;SDS011;727;48.892;9.544;2024-02-28T03:52:30;34.60;;;23.42;;
1467;SDS011;727;48.892;9.544;2024-02-28T03:54:57;37.33;;;23.25;;
1467;SDS011;727;48.892;9.544;2024-02-28T03:57:23;32.67;;;22.20;;
1467;SDS011;727;48.892;9.544;2024-02-28T03:59:50;34.65;;;21.92;;
1467;SDS011;727;48.892;9.544;2024-02-28T04:02:17;35.75;;;23.75;;
1467;SDS011;727;48.892;9.544;2024-02-28T04:04:43;32.75;;;22.80;;
1467;SDS011;727;48.892;9.544;2024-02-28T04:07:11;33.67;;;23.20;;
1467;SDS011;727;48.892;9.544;2024-02-28T04:09:38;34.20;;;23.85;;
1467;SDS011;727;48.892;9.544;2024-02-28T04:12:05;34.20;;;23.67;;
1467;SDS011;727;48.892;9.544;2024-02-28T04:14:32;32.58;;;22.35;;
1467;SDS011;727;48.892;9.544;2024-02-28T04:16:59;37.35;;;22.48;;
1467;SDS011;727;48.892;9.544;2024-02-28T04:19:25;32.55;;;22.42;;
1467;SDS011;727;48.892;9.544;2024-02-28T04:21:52;36.50;;;23.77;;
1467;SDS011;727;48.892;9.544;2024-02-28T04:24:20;38.72;;;22.17;;
1467;SDS011;727;48.892;9.544;2024-02-28T04:26:46;38.95;;;23.02;;
1467;SDS011;727;48.892;9.544;2024-02-28T04:29:13;35.15;;;25.83;;
1467;SDS011;727;48.892;9.544;2024-02-28T04:31:40;42.05;;;22.75;;
1467;SDS011;727;48.892;9.544;2024-02-28T04:34:07;37.70;;;23.15;;
1467;SDS011;727;48.892;9.544;2024-02-28T04:36:33;43.25;;;23.88;;
1467;SDS011;727;48.892;9.544;2024-02-28T04:39:00;37.58;;;25.15;;
1467;SDS011;727;48.892;9.544;2024-02-28T04:41:30;40.55;;;24.38;;
1467;SDS011;727;48.892;9.544;2024-02-28T04:43:57;38.67;;;22.10;;
1467;SDS011;727;48.892;9.544;2024-02-28T04:46:23;36.25;;;23.38;;
1467;SDS011;727;48.892;9.544;2024-02-28T04:48:50;42.45;;;26.92;;
1467;SDS011;727;48.892;9.544;2024-02-28T04:51:16;41.38;;;24.80;;
1467;SDS011;727;48.892;9.544;2024-02-28T04:53:43;35.17;;;22.52;;
1467;SDS011;727;48.892;9.544;2024-02-28T04:56:10;39.17;;;23.70;;
1467;SDS011;727;48.892;9.544;2024-02-28T04:58:38;37.75;;;24.25;;
1467;SDS011;727;48.892;9.544;2024-02-28T05:01:05;45.97;;;27.63;;
1467;SDS011;727;48.892;9.544;2024-02-28T05:03:31;43.95;;;26.33;;
1467;SDS011;727;48.892;9.544;2024-02-28T05:05:58;39.65;;;26.25;;
1467;SDS011;727;48.892;9.544;2024-02-28T05:08:25;37.00;;;23.33;;
1467;SDS011;727;48.892;9.544;2024-02-28T05:10:52;37.92;;;26.00;;
1467;SDS011;727;48.892;9.544;2024-02-28T05:13:19;41.20;;;24.85;;
1467;SDS011;727;48.892;9.544;2024-02-28T05:15:48;60.47;;;40.45;;
1467;SDS011;727;48.892;9.544;2024-02-28T05:18:15;50.90;;;32.60;;
1467;SDS011;727;48.892;9.544;2024-02-28T05:20:42;38.55;;;25.25;;
1467;SDS011;727;48.892;9.544;2024-02-28T05:23:09;35.25;;;22.13;;
1467;SDS011;727;48.892;9.544;2024-02-28T05:25:35;38.63;;;23.48;;
1467;SDS011;727;48.892;9.544;2024-02-28T05:28:02;40.85;;;24.88;;
1467;SDS011;727;48.892;9.544;2024-02-28T05:30:29;33.20;;;23.67;;
1467;SDS011;727;48.892;9.544;2024-02-28T05:32:57;45.45;;;26.77;;
1467;SDS011;727;48.892;9.544;2024-02-28T05:35:24;37.97;;;25.10;;
1467;SDS011;727;48.892;9.544;2024-02-28T05:37:53;35.17;;;23.98;;
1467;SDS011;727;48.892;9.544;2024-02-28T05:40:20;44.42;;;23.83;;
1467;SDS011;727;48.892;9.544;2024-02-28T05:42:47;34.85;;;22.83;;
1467;SDS011;727;48.892;9.544;2024-02-28T05:45:13;39.03;;;25.27;;
1467;SDS011;727;48.892;9.544;2024-02-28T05:47:40;36.70;;;25.10;;
1467;SDS011;727;48.892;9.544;2024-02-28T05:50:09;41.25;;;26.42;;
1467;SDS011;727;48.892;9.544;2024-02-28T05:52:36;34.75;;;25.13;;
1467;SDS011;727;48.892;9.544;2024-02-28T05:55:03;35.33;;;26.00;;
1467;SDS011;727;48.892;9.544;2024-02-28T05:57:30;45.58;;;26.60;;
1467;SDS011;727;48.892;9.544;2024-02-28T05:59:56;41.22;;;25.98;;
1467;SDS011;727;48.892;9.544;2024-02-28T06:02:23;41.17;;;25.13;;
1467;SDS011;727;48.892;9.544;2024-02-28T06:04:50;37.88;;;22.55;;
1467;SDS011;727;48.892;9.544;2024-02-28T06:07:19;41.20;;;27.83;;
1467;SDS011;727;48.892;9.544;2024-02-28T06:09:45;38.30;;;26.52;;
1467;SDS011;727;48.892;9.544;2024-02-28T06:12:12;40.40;;;26.00;;
1467;SDS011;727;48.892;9.544;2024-02-28T06:14:38;41.20;;;26.17;;
1467;SDS011;727;48.892;9.544;2024-02-28T06:17:05;33.58;;;21.20;;
1467;SDS011;727;48.892;9.544;2024-02-28T06:19:32;37.53;;;23.08;;
1467;SDS011;727;48.892;9.544;2024-02-28T06:21:59;31.67;;;20.98;;
1467;SDS011;727;48.892;9.544;2024-02-28T06:24:26;37.25;;;23.00;;
1467;SDS011;727;48.892;9.544;2024-02-28T06:26:53;33.33;;;20.90;;
1467;SDS011;727;48.892;9.544;2024-02-28T06:29:20;33.58;;;21.05;;
1467;SDS011;727;48.892;9.544;2024-02-28T06:31:49;29.20;;;20.52;;
1467;SDS011;727;48.892;9.544;2024-02-28T06:34:16;35.67;;;22.75;;
1467;SDS011;727;48.892;9.544;2024-02-28T06:36:43;26.42;;;18.83;;
1467;SDS011;727;48.892;9.544;2024-02-28T06:39:09;33.90;;;18.58;;
1467;SDS011;727;48.892;9.544;2024-02-28T06:41:37;32.55;;;20.75;;
1467;SDS011;727;48.892;9.544;2024-02-28T06:44:04;30.45;;;20.48;;
1467;SDS011;727;48.892;9.544;2024-02-28T06:46:32;29.00;;;20.42;;
1467;SDS011;727;48.892;9.544;2024-02-28T06:48:59;30.83;;;20.40;;
1467;SDS011;727;48.892;9.544;2024-02-28T06:51:26;28.40;;;19.17;;
1467;SDS011;727;48.892;9.544;2024-02-28T06:53:52;24.20;;;18.30;;
1467;SDS011;727;48.892;9.544;2024-02-28T06:56:19;34.90;;;19.70;;
1467;SDS011;727;48.892;9.544;2024-02-28T06:58:47;29.38;;;18.80;;
1467;SDS011;727;48.892;9.544;2024-02-28T07:01:13;35.60;;;23.30;;
1467;SDS011;727;48.892;9.544;2024-02-28T07:03:40;28.55;;;20.83;;
1467;SDS011;727;48.892;9.544;2024-02-28T07:06:07;40.67;;;25.50;;
1467;SDS011;727;48.892;9.544;2024-02-28T07:08:34;36.33;;;22.00;;
1467;SDS011;727;48.892;9.544;2024-02-28T07:11:00;31.63;;;21.80;;
1467;SDS011;727;48.892;9.544;2024-02-28T07:13:30;31.20;;;23.80;;
1467;SDS011;727;48.892;9.544;2024-02-28T07:15:58;33.33;;;21.25;;
1467;SDS011;727;48.892;9.544;2024-02-28T07:18:28;37.30;;;23.65;;
1467;SDS011;727;48.892;9.544;2024-02-28T07:20:57;26.80;;;19.10;;
1467;SDS011;727;48.892;9.544;2024-02-28T07:23:24;36.28;;;22.98;;
1467;SDS011;727;48.892;9.544;2024-02-28T07:25:53;33.95;;;20.95;;
1467;SDS011;727;48.892;9.544;2024-02-28T07:28:22;29.98;;;19.92;;
1467;SDS011;727;48.892;9.544;2024-02-28T07:30:49;36.03;;;21.08;;
1467;SDS011;727;48.892;9.544;2024-02-28T07:33:17;35.75;;;23.70;;
1467;SDS011;727;48.892;9.544;2024-02-28T07:35:44;32.78;;;22.95;;
1467;SDS011;727;48.892;9.544;2024-02-28T07:38:11;34.30;;;22.35;;
1467;SDS011;727;48.892;9.544;2024-02-28T07:40:37;30.63;;;21.75;;
1467;SDS011;727;48.892;9.544;2024-02-28T07:43:04;31.40;;;20.67;;
1467;SDS011;727;48.892;9.544;2024-02-28T07:45:31;32.70;;;22.98;;
1467;SDS011;727;48.892;9.544;2024-02-28T07:47:57;40.03;;;24.48;;
1467;SDS011;727;48.892;9.544;2024-02-28T07:50:25;37.03;;;26.48;;
1467;SDS011;727;48.892;9.544;2024-02-28T07:52:53;47.30;;;26.88;;
1467;SDS011;727;48.892;9.544;2024-02-28T07:55:20;35.35;;;24.23;;
1467;SDS011;727;48.892;9.544;2024-02-28T07:57:47;39.55;;;25.90;;
1467;SDS011;727;48.892;9.544;2024-02-28T08:00:16;44.03;;;28.33;;
1467;SDS011;727;48.892;9.544;2024-02-28T08:02:44;48.28;;;28.08;;
1467;SDS011;727;48.892;9.544;2024-02-28T08:05:10;45.95;;;29.83;;
1467;SDS011;727;48.892;9.544;2024-02-28T08:07:38;43.17;;;25.90;;
1467;SDS011;727;48.892;9.544;2024-02-28T08:10:05;41.78;;;27.27;;
1467;SDS011;727;48.892;9.544;2024-02-28T08:12:35;45.67;;;27.52;;
1467;SDS011;727;48.892;9.544;2024-02-28T08:15:01;42.80;;;25.77;;
1467;SDS011;727;48.892;9.544;2024-02-28T08:17:28;48.35;;;26.60;;
1467;SDS011;727;48.892;9.544;2024-02-28T08:19:55;39.45;;;24.00;;
1467;SDS011;727;48.892;9.544;2024-02-28T08:22:21;40.60;;;24.45;;
1467;SDS011;727;48.892;9.544;2024-02-28T08:24:52;49.65;;;25.80;;
1467;SDS011;727;48.892;9.544;2024-02-28T08:27:18;44.88;;;25.38;;
1467;SDS011;727;48.892;9.544;2024-02-28T08:29:45;41.42;;;26.67;;
1467;SDS011;727;48.892;9.544;2024-02-28T08:32:12;38.50;;;23.00;;
1467;SDS011;727;48.892;9.544;2024-02-28T08:34:42;38.80;;;24.85;;
1467;SDS011;727;48.892;9.544;2024-02-28T08:37:11;35.80;;;23.73;;
1467;SDS011;727;48.892;9.544;2024-02-28T08:39:37;40.15;;;23.50;;
1467;SDS011;727;48.892;9.544;2024-02-28T08:42:05;41.28;;;24.98;;
1467;SDS011;727;48.892;9.544;2024-02-28T08:44:32;47.28;;;27.70;;
1467;SDS011;727;48.892;9.544;2024-02-28T08:46:59;39.00;;;24.33;;
1467;SDS011;727;48.892;9.544;2024-02-28T08:49:25;42.20;;;27.00;;
1467;SDS011;727;48.892;9.544;2024-02-28T08:51:52;39.10;;;25.88;;
1467;SDS011;727;48.892;9.544;2024-02-28T08:54:19;41.55;;;24.75;;
1467;SDS011;727;48.892;9.544;2024-02-28T08:56:45;41.55;;;24.45;;
1467;SDS011;727;48.892;9.544;2024-02-28T08:59:14;41.55;;;25.52;;
1467;SDS011;727;48.892;9.544;2024-02-28T09:01:41;44.70;;;24.50;;
1467;SDS011;727;48.892;9.544;2024-02-28T09:04:08;45.67;;;25.35;;
1467;SDS011;727;48.892;9.544;2024-02-28T09:06:35;41.22;;;24.75;;
1467;SDS011;727;48.892;9.544;2024-02-28T09:09:01;34.38;;;21.92;;
1467;SDS011;727;48.892;9.544;2024-02-28T09:11:28;39.50;;;24.70;;
1467;SDS011;727;48.892;9.544;2024-02-28T09:13:55;33.80;;;20.48;;
1467;SDS011;727;48.892;9.544;2024-02-28T09:16:23;36.38;;;21.55;;
1467;SDS011;727;48.892;9.544;2024-02-28T09:18:50;31.13;;;19.20;;
1467;SDS011;727;48.892;9.544;2024-02-28T09:21:16;35.70;;;22.25;;
1467;SDS011;727;48.892;9.544;2024-02-28T09:23:43;36.20;;;21.35;;
1467;SDS011;727;48.892;9.544;2024-02-28T09:26:09;22.65;;;15.05;;
1467;SDS011;727;48.892;9.544;2024-02-28T09:28:36;18.50;;;13.77;;
1467;SDS011;727;48.892;9.544;2024-02-28T09:31:03;20.25;;;12.80;;
1467;SDS011;727;48.892;9.544;2024-02-28T09:33:31;23.23;;;15.10;;
1467;SDS011;727;48.892;9.544;2024-02-28T09:35:57;25.88;;;14.32;;
1467;SDS011;727;48.892;9.544;2024-02-28T09:38:24;25.08;;;15.57;;
1467;SDS011;727;48.892;9.544;2024-02-28T09:40:51;23.08;;;15.88;;
1467;SDS011;727;48.892;9.544;2024-02-28T09:43:19;26.60;;;16.90;;
1467;SDS011;727;48.892;9.544;2024-02-28T09:45:54;23.67;;;16.90;;
1467;SDS011;727;48.892;9.544;2024-02-28T09:48:23;27.73;;;17.10;;
1467;SDS011;727;48.892;9.544;2024-02-28T09:50:54;25.95;;;16.05;;
1467;SDS011;727;48.892;9.544;2024-02-28T09:53:22;27.48;;;16.67;;
1467;SDS011;727;48.892;9.544;2024-02-28T09:55:49;23.08;;;15.27;;
1467;SDS011;727;48.892;9.544;2024-02-28T09:58:17;23.95;;;16.00;;
1467;SDS011;727;48.892;9.544;2024-02-28T10:00:45;23.63;;;16.27;;
1467;SDS011;727;48.892;9.544;2024-02-28T10:03:13;24.45;;;17.52;;
1467;SDS011;727;48.892;9.544;2024-02-28T10:05:44;34.05;;;26.52;;
1467;SDS011;727;48.892;9.544;2024-02-28T10:08:11;21.98;;;14.60;;
1467;SDS011;727;48.892;9.544;2024-02-28T10:10:44;25.52;;;15.57;;
1467;SDS011;727;48.892;9.544;2024-02-28T10:13:11;19.10;;;13.10;;
1467;SDS011;727;48.892;9.544;2024-02-28T10:15:37;18.33;;;13.82;;
1467;SDS011;727;48.892;9.544;2024-02-28T10:18:04;23.92;;;16.33;;
1467;SDS011;727;48.892;9.544;2024-02-28T10:20:31;21.30;;;16.17;;
1467;SDS011;727;48.892;9.544;2024-02-28T10:22:58;27.60;;;14.95;;
1467;SDS011;727;48.892;9.544;2024-02-28T10:25:26;16.85;;;12.20;;
1467;SDS011;727;48.892;9.544;2024-02-28T10:27:54;19.75;;;14.25;;
1467;SDS011;727;48.892;9.544;2024-02-28T10:30:25;20.08;;;14.55;;
1467;SDS011;727;48.892;9.544;2024-02-28T10:32:52;21.45;;;15.90;;
1467;SDS011;727;48.892;9.544;2024-02-28T10:35:19;20.08;;;14.10;;
1467;SDS011;727;48.892;9.544;2024-02-28T10:37:50;20.13;;;14.55;;
1467;SDS011;727;48.892;9.544;2024-02-28T10:40:17;20.25;;;14.68;;
1467;SDS011;727;48.892;9.544;2024-02-28T10:42:47;18.08;;;15.05;;
1467;SDS011;727;48.892;9.544;2024-02-28T10:45:14;16.80;;;13.55;;
1467;SDS011;727;48.892;9.544;2024-02-28T10:47:43;20.80;;;13.63;;
1467;SDS011;727;48.892;9.544;2024-02-28T10:50:11;20.33;;;14.90;;
1467;SDS011;727;48.892;9.544;2024-02-28T10:52:43;18.35;;;12.80;;
1467;SDS011;727;48.892;9.544;2024-02-28T10:55:12;20.25;;;15.15;;
1467;SDS011;727;48.892;9.544;2024-02-28T10:57:42;20.52;;;14.82;;
1467;SDS011;727;48.892;9.544;2024-02-28T11:00:14;16.85;;;12.93;;
1467;SDS011;727;48.892;9.544;2024-02-28T11:02:42;15.88;;;11.88;;
1467;SDS011;727;48.892;9.544;2024-02-28T11:05:09;15.50;;;12.18;;
1467;SDS011;727;48.892;9.544;2024-02-28T11:07:40;22.98;;;15.02;;
1467;SDS011;727;48.892;9.544;2024-02-28T11:10:07;19.45;;;13.90;;
1467;SDS011;727;48.892;9.544;2024-02-28T11:12:35;24.60;;;15.35;;
1467;SDS011;727;48.892;9.544;2024-02-28T11:15:03;19.20;;;12.30;;
1467;SDS011;727;48.892;9.544;2024-02-28T11:17:32;16.38;;;12.65;;
1467;SDS011;727;48.892;9.544;2024-02-28T11:19:59;18.15;;;12.07;;
1467;SDS011;727;48.892;9.544;2024-02-28T11:22:27;20.60;;;16.10;;
1467;SDS011;727;48.892;9.544;2024-02-28T11:24:54;18.52;;;14.50;;
1467;SDS011;727;48.892;9.544;2024-02-28T11:27:21;19.33;;;12.85;;
1467;SDS011;727;48.892;9.544;2024-02-28T11:29:48;18.75;;;13.75;;
1467;SDS011;727;48.892;9.544;2024-02-28T11:32:15;20.50;;;14.20;;
1467;SDS011;727;48.892;9.544;2024-02-28T11:34:43;23.08;;;13.50;;
1467;SDS011;727;48.892;9.544;2024-02-28T11:37:10;19.13;;;13.82;;
1467;SDS011;727;48.892;9.544;2024-02-28T11:39:37;19.77;;;14.60;;
1467;SDS011;727;48.892;9.544;2024-02-28T11:42:10;20.15;;;13.15;;
1467;SDS011;727;48.892;9.544;2024-02-28T11:44:39;20.15;;;14.82;;
1467;SDS011;727;48.892;9.544;2024-02-28T11:47:07;18.85;;;15.07;;
1467;SDS011;727;48.892;9.544;2024-02-28T11:49:35;21.20;;;13.75;;
1467;SDS011;727;48.892;9.544;2024-02-28T11:52:03;19.02;;;14.48;;
1467;SDS011;727;48.892;9.544;2024-02-28T11:54:30;22.08;;;14.73;;
1467;SDS011;727;48.892;9.544;2024-02-28T11:56:57;21.35;;;14.35;;
1467;SDS011;727;48.892;9.544;2024-02-28T11:59:24;25.35;;;18.52;;
1467;SDS011;727;48.892;9.544;2024-02-28T12:01:51;23.17;;;15.20;;
1467;SDS011;727;48.892;9.544;2024-02-28T12:04:18;25.42;;;14.40;;
1467;SDS011;727;48.892;9.544;2024-02-28T12:06:44;20.88;;;14.43;;
1467;SDS011;727;48.892;9.544;2024-02-28T12:09:12;19.10;;;14.65;;
1467;SDS011;727;48.892;9.544;2024-02-28T12:11:40;20.38;;;13.82;;
1467;SDS011;727;48.892;9.544;2024-02-28T12:14:07;25.77;;;15.05;;
1467;SDS011;727;48.892;9.544;2024-02-28T12:16:35;20.20;;;14.07;;
1467;SDS011;727;48.892;9.544;2024-02-28T12:19:04;21.02;;;15.23;;
1467;SDS011;727;48.892;9.544;2024-02-28T12:21:33;25.38;;;16.58;;
1467;SDS011;727;48.892;9.544;2024-02-28T12:24:00;21.45;;;16.92;;
1467;SDS011;727;48.892;9.544;2024-02-28T12:26:28;21.58;;;16.02;;
1467;SDS011;727;48.892;9.544;2024-02-28T12:28:54;20.13;;;15.52;;
1467;SDS011;727;48.892;9.544;2024-02-28T12:31:21;22.73;;;15.30;;
1467;SDS011;727;48.892;9.544;2024-02-28T12:33:48;23.33;;;16.02;;
1467;SDS011;727;48.892;9.544;2024-02-28T12:36:14;25.75;;;16.90;;
1467;SDS011;727;48.892;9.544;2024-02-28T12:38:41;21.45;;;15.13;;
1467;SDS011;727;48.892;9.544;2024-02-28T12:41:07;22.40;;;15.15;;
1467;SDS011;727;48.892;9.544;2024-02-28T12:43:36;20.27;;;15.10;;
1467;SDS011;727;48.892;9.544;2024-02-28T12:46:03;21.77;;;16.15;;
1467;SDS011;727;48.892;9.544;2024-02-28T12:48:29;24.63;;;15.35;;
1467;SDS011;727;48.892;9.544;2024-02-28T12:50:57;23.15;;;15.55;;
1467;SDS011;727;48.892;9.544;2024-02-28T12:53:24;20.55;;;14.77;;
1467;SDS011;727;48.892;9.544;2024-02-28T12:55:51;19.80;;;14.18;;
1467;SDS011;727;48.892;9.544;2024-02-28T12:58:17;20.83;;;14.93;;
1467;SDS011;727;48.892;9.544;2024-02-28T13:00:46;23.38;;;15.15;;
1467;SDS011;727;48.892;9.544;2024-02-28T13:03:12;17.75;;;13.02;;
1467;SDS011;727;48.892;9.544;2024-02-28T13:05:40;20.35;;;13.52;;
1467;SDS011;727;48.892;9.544;2024-02-28T13:08:06;17.65;;;13.35;;
1467;SDS011;727;48.892;9.544;2024-02-28T13:10:33;20.30;;;13.95;;
1467;SDS011;727;48.892;9.544;2024-02-28T13:13:01;21.98;;;13.98;;
1467;SDS011;727;48.892;9.544;2024-02-28T13:15:28;22.80;;;15.85;;
1467;SDS011;727;48.892;9.544;2024-02-28T13:17:56;17.95;;;13.10;;
1467;SDS011;727;48.892;9.544;2024-02-28T13:20:23;21.40;;;13.80;;
1467;SDS011;727;48.892;9.544;2024-02-28T13:22:49;19.73;;;13.85;;
1467;SDS011;727;48.892;9.544;2024-02-28T13:25:16;15.05;;;11.30;;
1467;SDS011;727;48.892;9.544;2024-02-28T13:27:44;19.27;;;12.90;;
1467;SDS011;727;48.892;9.544;2024-02-28T13:30:11;20.20;;;13.63;;
1467;SDS011;727;48.892;9.544;2024-02-28T13:32:39;19.40;;;14.00;;
1467;SDS011;727;48.892;9.544;2024-02-28T13:35:07;18.15;;;13.50;;
1467;SDS011;727;48.892;9.544;2024-02-28T13:37:35;21.52;;;14.65;;
1467;SDS011;727;48.892;9.544;2024-02-28T13:40:05;22.05;;;16.13;;
1467;SDS011;727;48.892;9.544;2024-02-28T13:42:33;19.95;;;13.15;;
1467;SDS011;727;48.892;9.544;2024-02-28T13:45:00;17.42;;;13.13;;
1467;SDS011;727;48.892;9.544;2024-02-28T13:47:26;23.35;;;14.45;;
1467;SDS011;727;48.892;9.544;2024-02-28T13:49:53;18.35;;;13.65;;
1467;SDS011;727;48.892;9.544;2024-02-28T13:52:21;15.73;;;13.40;;
1467;SDS011;727;48.892;9.544;2024-02-28T13:54:47;19.95;;;13.82;;
1467;SDS011;727;48.892;9.544;2024-02-28T13:57:16;14.93;;;12.93;;
1467;SDS011;727;48.892;9.544;2024-02-28T13:59:43;16.83;;;12.63;;
1467;SDS011;727;48.892;9.544;2024-02-28T14:02:13;16.67;;;13.07;;
1467;SDS011;727;48.892;9.544;2024-02-28T14:04:40;18.92;;;13.05;;
1467;SDS011;727;48.892;9.544;2024-02-28T14:07:07;19.30;;;12.80;;
1467;SDS011;727;48.892;9.544;2024-02-28T14:09:35;15.73;;;12.63;;
1467;SDS011;727;48.892;9.544;2024-02-28T14:12:02;17.02;;;12.00;;
1467;SDS011;727;48.892;9.544;2024-02-28T14:14:29;16.73;;;12.05;;
1467;SDS011;727;48.892;9.544;2024-02-28T14:16:56;22.48;;;14.95;;
1467;SDS011;727;48.892;9.544;2024-02-28T14:19:23;18.05;;;14.57;;
1467;SDS011;727;48.892;9.544;2024-02-28T14:21:49;22.33;;;16.55;;
1467;SDS011;727;48.892;9.544;2024-02-28T14:24:16;23.25;;;17.08;;
1467;SDS011;727;48.892;9.544;2024-02-28T14:26:46;19.60;;;13.73;;
1467;SDS011;727;48.892;9.544;2024-02-28T14:29:13;20.75;;;14.90;;
1467;SDS011;727;48.892;9.544;2024-02-28T14:31:39;19.05;;;13.60;;
1467;SDS011;727;48.892;9.544;2024-02-28T14:34:07;17.58;;;13.48;;
1467;SDS011;727;48.892;9.544;2024-02-28T14:36:34;17.98;;;12.63;;
1467;SDS011;727;48.892;9.544;2024-02-28T14:39:01;15.55;;;12.50;;
1467;SDS011;727;48.892;9.544;2024-02-28T14:41:28;17.25;;;12.32;;
1467;SDS011;727;48.892;9.544;2024-02-28T14:43:58;17.55;;;12.43;;
1467;SDS011;727;48.892;9.544;2024-02-28T14:46:24;23.10;;;13.07;;
1467;SDS011;727;48.892;9.544;2024-02-28T14:48:51;18.20;;;13.70;;
1467;SDS011;727;48.892;9.544;2024-02-28T14:51:18;14.45;;;10.88;;
1467;SDS011;727;48.892;9.544;2024-02-28T14:53:45;17.15;;;12.52;;
1467;SDS011;727;48.892;9.544;2024-02-28T14:56:12;25.20;;;17.85;;
1467;SDS011;727;48.892;9.544;2024-02-28T14:58:39;23.23;;;14.80;;
1467;SDS011;727;48.892;9.544;2024-02-28T15:01:07;18.83;;;14.60;;